createdAt,value
2019-04-04T00:01:17.086Z,1.20
2019-04-04T00:03:46.110Z,1.27
2019-04-04T00:06:14.718Z,1.40
2019-04-04T00:08:43.283Z,1.70
2019-04-04T00:11:11.767Z,1.40
2019-04-04T00:13:42.074Z,1.37
2019-04-04T00:16:10.353Z,1.40
2019-04-04T00:18:38.862Z,1.42
2019-04-04T00:21:07.349Z,1.17
2019-04-04T00:23:37.793Z,1.60
2019-04-04T00:26:06.014Z,1.60
2019-04-04T00:28:34.481Z,1.65
2019-04-04T00:31:03.022Z,1.70
2019-04-04T00:33:33.135Z,1.60
2019-04-04T00:36:02.653Z,1.50
2019-04-04T00:38:31.931Z,1.52
2019-04-04T00:41:00.560Z,2.30
2019-04-04T00:43:29.004Z,1.77
2019-04-04T00:46:00.519Z,1.57
2019-04-04T00:48:27.636Z,1.60
2019-04-04T00:50:56.250Z,1.87
2019-04-04T00:53:24.804Z,1.85
2019-04-04T00:55:53.390Z,1.63
2019-04-04T00:58:21.989Z,1.70
2019-04-04T01:00:50.495Z,1.50
2019-04-04T01:03:18.954Z,1.47
2019-04-04T01:05:47.459Z,1.90
2019-04-04T01:08:15.904Z,1.70
2019-04-04T01:10:44.869Z,1.70
2019-04-04T01:13:13.381Z,1.60
2019-04-04T01:15:41.979Z,1.63
2019-04-04T01:18:10.458Z,1.62
2019-04-04T01:20:39.000Z,1.65
2019-04-04T01:23:07.568Z,1.60
2019-04-04T01:25:36.188Z,1.43
2019-04-04T01:28:06.144Z,1.67
2019-04-04T01:30:34.902Z,1.65
2019-04-04T01:33:03.773Z,1.80
2019-04-04T01:35:32.414Z,1.47
2019-04-04T01:38:01.005Z,1.87
2019-04-04T01:40:32.915Z,2.33
2019-04-04T01:42:59.603Z,1.40
2019-04-04T01:45:28.133Z,1.70
2019-04-04T01:47:56.601Z,1.55
2019-04-04T01:50:25.057Z,1.80
2019-04-04T01:52:53.571Z,1.70
2019-04-04T01:55:22.052Z,1.90
2019-04-04T01:57:50.611Z,1.70
2019-04-04T02:00:19.218Z,1.63
2019-04-04T02:02:47.773Z,1.75
2019-04-04T02:05:16.317Z,1.77
2019-04-04T02:07:44.987Z,1.92
2019-04-04T02:10:13.610Z,2.45
2019-04-04T02:12:42.110Z,2.05
2019-04-04T02:15:13.961Z,2.45
2019-04-04T02:17:40.916Z,2.35
2019-04-04T02:20:09.526Z,2.40
2019-04-04T02:22:38.011Z,1.57
2019-04-04T02:25:07.417Z,2.23
2019-04-04T02:27:37.578Z,2.45
2019-04-04T02:30:07.046Z,2.10
2019-04-04T02:32:35.686Z,2.50
2019-04-04T02:35:10.062Z,2.45
2019-04-04T02:37:36.175Z,2.17
2019-04-04T02:40:08.687Z,2.30
2019-04-04T02:42:37.340Z,2.55
2019-04-04T02:45:06.596Z,2.50
2019-04-04T02:47:35.204Z,3.22
2019-04-04T02:50:04.508Z,2.73
2019-04-04T02:52:33.025Z,3.20
2019-04-04T02:55:01.550Z,3.60
2019-04-04T02:57:30.086Z,4.00
2019-04-04T02:59:58.849Z,3.50
2019-04-04T03:02:27.450Z,4.53
2019-04-04T03:04:56.006Z,3.50
2019-04-04T03:07:24.510Z,2.90
2019-04-04T03:09:53.056Z,3.55
2019-04-04T03:12:25.705Z,3.33
2019-04-04T03:14:51.882Z,3.53
2019-04-04T03:17:20.384Z,4.55
2019-04-04T03:19:48.859Z,4.60
2019-04-04T03:22:17.363Z,5.03
2019-04-04T03:24:45.825Z,4.67
2019-04-04T03:27:14.368Z,5.70
2019-04-04T03:29:43.023Z,5.95
2019-04-04T03:32:14.605Z,6.10
2019-04-04T03:34:47.847Z,6.20
2019-04-04T03:37:12.407Z,7.80
2019-04-04T03:39:41.110Z,7.17
2019-04-04T03:42:09.641Z,7.23
2019-04-04T03:44:38.092Z,7.78
2019-04-04T03:47:10.070Z,7.60
2019-04-04T03:49:36.706Z,8.63
2019-04-04T03:52:05.207Z,9.40
2019-04-04T03:54:33.700Z,8.93
2019-04-04T03:57:02.163Z,9.00
2019-04-04T03:59:32.457Z,9.68
2019-04-04T04:02:00.771Z,10.13
2019-04-04T04:04:29.309Z,8.68
2019-04-04T04:06:57.730Z,9.53
2019-04-04T04:09:27.246Z,9.88
2019-04-04T04:11:55.792Z,9.30
2019-04-04T04:14:24.285Z,10.00
2019-04-04T04:16:52.760Z,10.13
2019-04-04T04:19:24.229Z,9.93
2019-04-04T04:21:51.362Z,9.50
2019-04-04T04:24:19.866Z,8.95
2019-04-04T04:26:48.326Z,9.97
2019-04-04T04:29:16.887Z,9.38
2019-04-04T04:31:48.317Z,9.20
2019-04-04T04:34:15.486Z,10.50
2019-04-04T04:36:47.685Z,9.37
2019-04-04T04:39:14.074Z,9.73
2019-04-04T04:41:42.550Z,9.50
2019-04-04T04:44:11.038Z,10.38
2019-04-04T04:46:39.501Z,9.80
2019-04-04T04:49:08.004Z,10.98
2019-04-04T04:51:36.462Z,11.75
2019-04-04T04:54:04.963Z,11.25
2019-04-04T04:56:33.424Z,9.73
2019-04-04T04:59:01.927Z,10.25
2019-04-04T05:01:30.387Z,9.50
2019-04-04T05:03:58.898Z,10.38
2019-04-04T05:06:27.365Z,9.10
2019-04-04T05:08:55.857Z,9.80
2019-04-04T05:11:24.365Z,10.50
2019-04-04T05:13:52.871Z,9.80
2019-04-04T05:16:21.339Z,9.70
2019-04-04T05:18:49.813Z,11.03
2019-04-04T05:21:24.785Z,12.03
2019-04-04T05:23:48.426Z,11.05
2019-04-04T05:26:16.894Z,15.50
2019-04-04T05:28:45.392Z,12.85
2019-04-04T05:31:13.884Z,13.47
2019-04-04T05:33:42.379Z,12.93
2019-04-04T05:36:10.845Z,13.00
2019-04-04T05:38:42.747Z,12.33
2019-04-04T05:41:09.580Z,14.53
2019-04-04T05:43:38.152Z,13.20
2019-04-04T05:46:06.820Z,12.63
2019-04-04T05:48:35.271Z,13.18
2019-04-04T05:51:03.838Z,13.50
2019-04-04T05:53:35.166Z,12.58
2019-04-04T05:56:02.557Z,12.30
2019-04-04T05:58:31.028Z,13.65
2019-04-04T06:01:01.526Z,12.43
2019-04-04T06:03:42.389Z,11.73
2019-04-04T06:06:10.879Z,12.10
2019-04-04T06:08:42.978Z,12.37
2019-04-04T06:11:09.494Z,12.85
2019-04-04T06:13:37.954Z,10.03
2019-04-04T06:16:06.526Z,11.07
2019-04-04T06:18:34.987Z,12.13
2019-04-04T06:21:03.479Z,10.53
2019-04-04T06:23:31.944Z,10.98
2019-04-04T06:26:00.472Z,11.20
2019-04-04T06:28:28.915Z,10.90
2019-04-04T06:30:57.418Z,10.30
2019-04-04T06:33:25.892Z,10.63
2019-04-04T06:35:54.382Z,10.37
2019-04-04T06:38:23.411Z,8.80
2019-04-04T06:40:52.528Z,11.60
2019-04-04T06:43:20.990Z,11.60
2019-04-04T06:45:49.495Z,13.23
2019-04-04T06:48:17.979Z,13.43
2019-04-04T06:50:46.532Z,12.10
2019-04-04T06:53:15.007Z,11.48
2019-04-04T06:55:43.565Z,11.43
2019-04-04T06:58:12.037Z,10.93
2019-04-04T07:00:41.984Z,12.23
2019-04-04T07:03:10.706Z,12.20
2019-04-04T07:05:40.156Z,12.83
2019-04-04T07:08:08.619Z,14.18
2019-04-04T07:10:37.112Z,14.27
2019-04-04T07:13:20.465Z,14.40
2019-04-04T07:15:46.318Z,16.70
2019-04-04T07:18:05.973Z,13.50
2019-04-04T07:20:34.475Z,16.93
2019-04-04T07:23:02.934Z,15.95
2019-04-04T07:25:31.428Z,15.38
2019-04-04T07:27:59.889Z,14.20
2019-04-04T07:30:29.252Z,14.13
2019-04-04T07:32:57.755Z,13.83
2019-04-04T07:35:26.266Z,17.93
2019-04-04T07:37:57.457Z,17.48
2019-04-04T07:40:24.847Z,18.27
2019-04-04T07:42:53.339Z,14.00
2019-04-04T07:45:21.805Z,13.43
2019-04-04T07:47:50.343Z,14.85
2019-04-04T07:50:18.815Z,13.63
2019-04-04T07:52:47.319Z,17.12
2019-04-04T07:55:15.800Z,12.55
2019-04-04T07:57:44.306Z,12.68
2019-04-04T08:00:12.933Z,14.10
2019-04-04T08:02:41.436Z,12.73
2019-04-04T08:05:12.928Z,13.25
2019-04-04T08:07:40.118Z,13.08
2019-04-04T08:10:19.898Z,12.15
2019-04-04T08:12:38.954Z,15.00
2019-04-04T08:15:07.595Z,13.67
2019-04-04T08:17:36.095Z,12.70
2019-04-04T08:20:06.363Z,13.68
2019-04-04T08:22:34.862Z,12.37
2019-04-04T08:25:03.467Z,14.37
2019-04-04T08:27:31.966Z,14.65
2019-04-04T08:30:00.445Z,13.57
2019-04-04T08:32:28.937Z,14.90
2019-04-04T08:34:57.401Z,13.10
2019-04-04T08:37:25.970Z,15.27
2019-04-04T08:39:54.444Z,15.50
2019-04-04T08:42:23.005Z,14.80
2019-04-04T08:44:51.479Z,14.00
2019-04-04T08:47:19.974Z,13.45
2019-04-04T08:49:48.445Z,15.88
2019-04-04T08:52:20.515Z,12.97
2019-04-04T08:54:47.064Z,14.43
2019-04-04T08:57:15.582Z,14.30
2019-04-04T08:59:44.050Z,14.20
2019-04-04T09:02:12.559Z,13.53
2019-04-04T09:04:41.018Z,14.83
2019-04-04T09:07:09.528Z,14.43
2019-04-04T09:09:38.088Z,16.40
2019-04-04T09:12:06.603Z,17.10
2019-04-04T09:14:35.061Z,14.95
2019-04-04T09:17:03.638Z,15.78
2019-04-04T09:19:32.150Z,14.50
2019-04-04T09:22:00.595Z,16.93
2019-04-04T09:24:29.093Z,16.25
2019-04-04T09:26:57.567Z,14.73
2019-04-04T09:29:26.082Z,15.70
2019-04-04T09:31:54.563Z,15.70
2019-04-04T09:34:23.087Z,15.43
2019-04-04T09:36:51.551Z,15.60
2019-04-04T09:39:20.090Z,15.32
2019-04-04T09:41:49.092Z,15.27
2019-04-04T09:44:17.619Z,16.70
2019-04-04T09:46:46.122Z,18.83
2019-04-04T09:49:14.598Z,17.65
2019-04-04T09:51:43.083Z,14.50
2019-04-04T09:54:11.576Z,19.30
2019-04-04T09:56:40.066Z,19.07
2019-04-04T09:59:08.580Z,18.65
2019-04-04T10:01:37.125Z,16.40
2019-04-04T10:04:05.704Z,18.50
2019-04-04T10:06:34.191Z,15.60
2019-04-04T10:09:15.070Z,13.15
2019-04-04T10:11:32.902Z,15.67
2019-04-04T10:14:04.002Z,11.85
2019-04-04T10:16:31.643Z,9.40
2019-04-04T10:19:00.158Z,11.68
2019-04-04T10:21:28.711Z,11.83
2019-04-04T10:23:57.225Z,10.18
2019-04-04T10:26:25.778Z,9.40
2019-04-04T10:28:54.277Z,9.58
2019-04-04T10:31:22.748Z,8.73
2019-04-04T10:33:51.258Z,8.60
2019-04-04T10:36:19.722Z,7.30
2019-04-04T10:38:48.235Z,7.30
2019-04-04T10:41:16.782Z,7.70
2019-04-04T10:43:45.294Z,8.30
2019-04-04T10:46:13.780Z,8.93
2019-04-04T10:48:42.298Z,9.13
2019-04-04T10:51:10.781Z,10.00
2019-04-04T10:53:39.276Z,9.88
2019-04-04T10:56:07.754Z,8.70
2019-04-04T10:58:36.266Z,8.48
2019-04-04T11:01:04.802Z,9.43
2019-04-04T11:03:33.302Z,9.50
2019-04-04T11:06:01.768Z,9.80
2019-04-04T11:08:30.260Z,8.98
2019-04-04T11:10:59.003Z,8.50
2019-04-04T11:13:33.318Z,9.40
2019-04-04T11:15:57.632Z,9.80
2019-04-04T11:18:26.118Z,7.58
2019-04-04T11:20:54.582Z,8.17
2019-04-04T11:23:23.081Z,8.18
2019-04-04T11:25:51.542Z,8.63
2019-04-04T11:28:20.038Z,9.38
2019-04-04T11:30:48.501Z,8.47
2019-04-04T11:33:17.001Z,9.38
2019-04-04T11:35:45.468Z,7.77
2019-04-04T11:38:13.959Z,9.15
2019-04-04T11:40:42.430Z,8.68
2019-04-04T11:43:10.927Z,9.95
2019-04-04T11:45:39.468Z,9.20
2019-04-04T11:48:07.923Z,9.38
2019-04-04T11:50:36.413Z,7.13
2019-04-04T11:53:04.878Z,8.88
2019-04-04T11:55:33.368Z,7.87
2019-04-04T11:58:01.830Z,7.67
2019-04-04T12:00:31.965Z,8.50
2019-04-04T12:03:00.497Z,8.65
2019-04-04T12:05:28.996Z,7.20
2019-04-04T12:07:57.463Z,7.30
2019-04-04T12:10:25.953Z,6.77
2019-04-04T12:12:54.412Z,7.60
2019-04-04T12:15:22.910Z,8.53
2019-04-04T12:17:51.370Z,6.85
2019-04-04T12:20:19.871Z,7.17
2019-04-04T12:22:48.334Z,7.12
2019-04-04T12:25:16.825Z,6.73
2019-04-04T12:27:45.830Z,8.25
2019-04-04T12:30:14.498Z,8.77
2019-04-04T12:32:42.977Z,6.90
2019-04-04T12:35:11.556Z,10.53
2019-04-04T12:37:40.024Z,8.83
2019-04-04T12:40:20.024Z,8.70
2019-04-04T12:42:39.076Z,8.13
2019-04-04T12:45:08.892Z,7.90
2019-04-04T12:47:37.624Z,7.42
2019-04-04T12:50:06.689Z,6.67
2019-04-04T12:52:37.002Z,6.40
2019-04-04T12:55:06.481Z,7.57
2019-04-04T12:57:35.024Z,7.62
2019-04-04T13:00:04.260Z,7.77
2019-04-04T13:02:32.730Z,7.92
2019-04-04T13:05:01.217Z,8.50
2019-04-04T13:07:29.673Z,8.68
2019-04-04T13:10:10.672Z,7.67
2019-04-04T13:12:28.280Z,8.43
2019-04-04T13:14:56.779Z,8.18
2019-04-04T13:17:25.233Z,7.50
2019-04-04T13:19:53.733Z,7.60
2019-04-04T13:22:22.196Z,8.50
2019-04-04T13:24:50.677Z,8.15
2019-04-04T13:27:19.146Z,8.87
2019-04-04T13:29:47.639Z,6.92
2019-04-04T13:32:16.100Z,8.20
2019-04-04T13:34:44.589Z,8.25
2019-04-04T13:37:13.062Z,9.98
2019-04-04T13:39:41.568Z,8.30
2019-04-04T13:42:10.038Z,8.07
2019-04-04T13:44:39.243Z,8.28
2019-04-04T13:47:07.714Z,6.67
2019-04-04T13:49:36.203Z,5.12
2019-04-04T13:52:04.792Z,6.10
2019-04-04T13:54:33.299Z,4.47
2019-04-04T13:57:01.759Z,3.77
2019-04-04T13:59:30.242Z,4.45
2019-04-04T14:01:58.698Z,3.73
2019-04-04T14:04:27.175Z,3.77
2019-04-04T14:06:55.644Z,3.30
2019-04-04T14:09:24.195Z,2.87
2019-04-04T14:11:52.656Z,3.20
2019-04-04T14:14:21.164Z,2.60
2019-04-04T14:16:49.620Z,2.50
2019-04-04T14:19:18.118Z,2.02
2019-04-04T14:21:46.580Z,2.30
2019-04-04T14:24:15.074Z,2.20
2019-04-04T14:26:46.004Z,1.90
2019-04-04T14:29:26.301Z,1.80
2019-04-04T14:31:43.861Z,2.30
2019-04-04T14:34:12.467Z,2.00
2019-04-04T14:36:40.954Z,1.93
2019-04-04T14:39:09.684Z,1.85
2019-04-04T14:41:38.261Z,1.73
2019-04-04T14:44:06.821Z,2.27
2019-04-04T14:46:37.134Z,1.90
2019-04-04T14:49:05.431Z,2.05
2019-04-04T14:51:33.926Z,2.57
2019-04-04T14:54:02.385Z,2.15
2019-04-04T14:56:30.956Z,2.20
2019-04-04T14:58:59.419Z,2.50
2019-04-04T15:01:28.010Z,2.33
2019-04-04T15:03:56.549Z,2.20
2019-04-04T15:06:25.064Z,1.70
2019-04-04T15:08:53.520Z,2.20
2019-04-04T15:11:24.330Z,2.10
2019-04-04T15:13:52.554Z,2.20
2019-04-04T15:16:21.498Z,2.20
2019-04-04T15:18:49.955Z,2.27
2019-04-04T15:21:18.530Z,2.77
2019-04-04T15:23:46.974Z,2.85
2019-04-04T15:26:15.482Z,3.00
2019-04-04T15:28:43.935Z,3.30
2019-04-04T15:31:12.487Z,3.80
2019-04-04T15:33:40.953Z,3.85
2019-04-04T15:36:09.460Z,3.57
2019-04-04T15:38:37.926Z,3.77
2019-04-04T15:41:06.493Z,3.50
2019-04-04T15:43:34.971Z,5.17
2019-04-04T15:46:03.479Z,4.40
2019-04-04T15:48:31.939Z,4.08
2019-04-04T15:51:00.505Z,3.77
2019-04-04T15:53:29.034Z,3.62
2019-04-04T15:55:57.535Z,3.20
2019-04-04T15:58:26.121Z,4.03
2019-04-04T16:00:54.682Z,3.60
2019-04-04T16:03:23.232Z,3.22
2019-04-04T16:05:51.803Z,3.77
2019-04-04T16:08:20.274Z,3.33
2019-04-04T16:10:48.756Z,4.00
2019-04-04T16:13:17.256Z,3.40
2019-04-04T16:15:45.714Z,3.47
2019-04-04T16:18:14.210Z,3.25
2019-04-04T16:20:42.943Z,3.43
2019-04-04T16:23:11.562Z,3.00
2019-04-04T16:25:40.006Z,2.80
2019-04-04T16:28:08.597Z,4.00
2019-04-04T16:30:37.070Z,3.20
2019-04-04T16:33:05.656Z,2.87
2019-04-04T16:35:34.278Z,2.40
2019-04-04T16:38:02.914Z,2.40
2019-04-04T16:40:31.417Z,3.10
2019-04-04T16:42:59.919Z,2.80
2019-04-04T16:45:28.373Z,2.00
2019-04-04T16:47:57.006Z,2.87
2019-04-04T16:50:25.531Z,2.20
2019-04-04T16:52:54.059Z,2.30
2019-04-04T16:55:22.710Z,2.90
2019-04-04T16:57:51.211Z,2.92
2019-04-04T17:00:20.998Z,2.53
2019-04-04T17:02:49.653Z,2.22
2019-04-04T17:05:18.268Z,1.90
2019-04-04T17:07:46.758Z,1.70
2019-04-04T17:10:15.290Z,1.77
2019-04-04T17:12:43.787Z,1.77
2019-04-04T17:15:12.398Z,1.55
2019-04-04T17:17:40.912Z,2.00
2019-04-04T17:20:09.734Z,2.20
2019-04-04T17:22:38.294Z,2.42
2019-04-04T17:25:07.005Z,2.70
2019-04-04T17:27:37.223Z,2.17
2019-04-04T17:30:07.142Z,2.20
2019-04-04T17:32:35.633Z,2.20
2019-04-04T17:35:06.751Z,2.30
2019-04-04T17:37:35.246Z,3.10
2019-04-04T17:40:06.145Z,2.47
2019-04-04T17:42:34.595Z,2.40
2019-04-04T17:45:04.834Z,2.80
2019-04-04T17:47:33.370Z,2.60
2019-04-04T17:50:01.911Z,2.98
2019-04-04T17:52:31.073Z,2.95
2019-04-04T17:54:59.632Z,2.83
2019-04-04T17:57:28.266Z,2.47
2019-04-04T17:59:56.833Z,2.60
2019-04-04T18:02:25.341Z,2.83
2019-04-04T18:04:53.809Z,2.72
2019-04-04T18:07:22.273Z,3.20
2019-04-04T18:09:50.856Z,2.90
2019-04-04T18:12:19.417Z,3.63
2019-04-04T18:14:47.907Z,3.40
2019-04-04T18:17:16.369Z,2.93
2019-04-04T18:19:45.506Z,3.67
2019-04-04T18:22:13.968Z,4.00
2019-04-04T18:24:42.459Z,3.55
2019-04-04T18:27:10.923Z,4.00
2019-04-04T18:29:39.428Z,3.50
2019-04-04T18:32:07.889Z,3.60
2019-04-04T18:34:36.386Z,4.83
2019-04-04T18:37:04.914Z,4.60
2019-04-04T18:39:33.415Z,4.50
2019-04-04T18:42:01.947Z,4.33
2019-04-04T18:44:30.447Z,3.83
2019-04-04T18:46:58.918Z,4.23
2019-04-04T18:49:27.451Z,4.22
2019-04-04T18:51:55.936Z,4.03
2019-04-04T18:54:24.462Z,4.33
2019-04-04T18:56:52.928Z,4.60
2019-04-04T18:59:21.483Z,4.83
2019-04-04T19:01:50.229Z,4.33
2019-04-04T19:04:18.718Z,4.60
2019-04-04T19:06:47.200Z,4.93
2019-04-04T19:09:15.788Z,4.53
2019-04-04T19:11:44.306Z,5.03
2019-04-04T19:14:12.904Z,5.15
2019-04-04T19:16:41.461Z,4.90
2019-04-04T19:19:10.010Z,5.17
2019-04-04T19:21:38.564Z,6.10
2019-04-04T19:24:07.059Z,7.12
2019-04-04T19:26:35.719Z,5.60
2019-04-04T19:29:04.296Z,6.00
2019-04-04T19:31:33.172Z,6.90
2019-04-04T19:34:01.846Z,6.28
2019-04-04T19:36:30.484Z,6.40
2019-04-04T19:38:59.147Z,5.90
2019-04-04T19:41:27.730Z,6.00
2019-04-04T19:43:56.262Z,6.50
2019-04-04T19:46:36.585Z,5.83
2019-04-04T19:48:54.906Z,5.92
2019-04-04T19:51:23.393Z,5.70
2019-04-04T19:53:51.855Z,6.55
2019-04-04T19:56:20.431Z,5.93
2019-04-04T19:58:48.909Z,6.47
2019-04-04T20:01:17.464Z,6.03
2019-04-04T20:03:45.954Z,6.30
2019-04-04T20:06:14.461Z,5.83
2019-04-04T20:08:42.938Z,6.20
2019-04-04T20:11:11.438Z,7.47
2019-04-04T20:13:39.958Z,7.67
2019-04-04T20:16:08.441Z,9.40
2019-04-04T20:18:36.927Z,9.33
2019-04-04T20:21:05.415Z,8.67
2019-04-04T20:23:33.880Z,7.03
2019-04-04T20:26:02.590Z,7.53
2019-04-04T20:28:31.054Z,6.90
2019-04-04T20:30:59.855Z,7.43
2019-04-04T20:33:28.396Z,7.33
2019-04-04T20:35:56.958Z,7.17
2019-04-04T20:38:25.505Z,7.22
2019-04-04T20:40:54.033Z,6.67
2019-04-04T20:43:22.508Z,6.60
2019-04-04T20:45:50.993Z,7.07
2019-04-04T20:48:19.463Z,7.90
2019-04-04T20:50:47.952Z,7.28
2019-04-04T20:53:16.492Z,8.07
2019-04-04T20:55:44.978Z,7.90
2019-04-04T20:58:13.462Z,8.20
2019-04-04T21:00:42.165Z,7.40
2019-04-04T21:03:10.675Z,8.37
2019-04-04T21:05:39.136Z,8.93
2019-04-04T21:08:07.661Z,8.50
2019-04-04T21:10:36.140Z,9.47
2019-04-04T21:13:04.709Z,9.20
2019-04-04T21:15:33.167Z,8.67
2019-04-04T21:18:01.673Z,7.63
2019-04-04T21:20:30.168Z,8.28
2019-04-04T21:22:58.682Z,7.80
2019-04-04T21:25:27.146Z,9.67
2019-04-04T21:27:55.688Z,10.00
2019-04-04T21:30:24.114Z,8.23
2019-04-04T21:32:52.610Z,8.27
2019-04-04T21:35:21.078Z,9.00
2019-04-04T21:37:49.572Z,8.60
2019-04-04T21:40:18.042Z,7.95
2019-04-04T21:42:46.537Z,9.40
2019-04-04T21:45:15.441Z,8.53
2019-04-04T21:47:44.119Z,8.43
2019-04-04T21:50:12.650Z,9.75
2019-04-04T21:52:41.207Z,10.45
2019-04-04T21:55:09.850Z,9.48
2019-04-04T21:57:38.346Z,9.57
2019-04-04T22:00:07.443Z,9.80
2019-04-04T22:02:36.160Z,9.47
2019-04-04T22:05:09.491Z,10.32
2019-04-04T22:07:37.993Z,9.54
2019-04-04T22:10:07.557Z,9.40
2019-04-04T22:12:36.045Z,8.03
2019-04-04T22:15:07.522Z,8.30
2019-04-04T22:17:36.091Z,9.00
2019-04-04T22:20:06.210Z,8.28
2019-04-04T22:22:34.706Z,9.40
2019-04-04T22:25:04.119Z,9.70
2019-04-04T22:27:32.624Z,10.07
2019-04-04T22:30:01.085Z,9.60
2019-04-04T22:32:29.593Z,10.37
2019-04-04T22:34:58.068Z,9.45
2019-04-04T22:37:26.568Z,8.90
2019-04-04T22:39:55.032Z,10.55
2019-04-04T22:42:23.530Z,9.43
2019-04-04T22:44:51.984Z,8.80
2019-04-04T22:47:20.477Z,9.17
2019-04-04T22:49:48.947Z,10.95
2019-04-04T22:52:17.443Z,9.40
2019-04-04T22:54:45.909Z,9.20
2019-04-04T22:57:14.405Z,9.80
2019-04-04T22:59:42.875Z,8.95
2019-04-04T23:02:11.370Z,8.83
2019-04-04T23:04:39.836Z,8.60
2019-04-04T23:07:08.332Z,8.93
2019-04-04T23:09:36.801Z,10.03
2019-04-04T23:12:05.364Z,9.05
2019-04-04T23:14:46.932Z,8.73
2019-04-04T23:17:03.953Z,8.78
2019-04-04T23:19:32.435Z,7.87
2019-04-04T23:22:00.898Z,9.73
2019-04-04T23:24:29.394Z,7.78
2019-04-04T23:26:57.856Z,8.60
2019-04-04T23:29:26.336Z,9.30
2019-04-04T23:31:54.830Z,7.87
2019-04-04T23:34:23.306Z,7.55
2019-04-04T23:36:51.779Z,6.63
2019-04-04T23:39:20.268Z,8.50
2019-04-04T23:41:48.731Z,7.40
2019-04-04T23:44:17.219Z,8.20
2019-04-04T23:46:45.689Z,8.80
2019-04-04T23:49:14.173Z,8.88
2019-04-04T23:51:42.639Z,8.30
2019-04-04T23:54:11.139Z,7.45
2019-04-04T23:56:39.677Z,8.40
2019-04-04T23:59:08.211Z,8.25
